Charleston, WV (25302)

12:08 AM EST on December 29, 2014 (GMT -0500)
Hillcrest Drive East | Change Station
CLOSE
Current Station
Personal Weather Station
Location: Charleston, WV
Elevation: 1053 ft
Nearby Weather Stations

Elev 1053 ft 38.34 °N, 81.60 °W | Updated 6 seconds ago

Light Rain
Light Rain Mist
36.0 °F
Feels Like 36 °F
N
2.0
Wind Variable Wind from North
Gusts 2.5 mph

Today
High -- | Low -- °F
--% Chance of Precip.
Yesterday
High -- | Low -- °F
Precip. -- in
7:43 AM 5:14 PM
First Quarter, 55% visible
Pressure 30.17 in
Visibility 4.0 miles
Clouds Scattered Clouds 100 ft
Overcast 1100 ft
Windchill 36 °F
Dew Point 35 °F
Humidity 96%
Rainfall 0.00 in
Snow Depth Not available.
UV 0.0 out of 12
Pollen .10 out of 12
Air Quality Not available.
Flu Activity Not available.
METAR KCRW 290454Z 03003KT 4SM -RA BR SCT001 OVC011 03/01 A3016 RMK AO2 RAE07B45 SLP217 VLY FG P0000 T00280011 401220028 $

More Conditions Fewer Conditions

Pressure 30.17 in
Visibility 4.0 miles
Clouds Scattered Clouds 100 ft
Overcast 1100 ft
Windchill 36 °F
Dew Point 35 °F
Humidity 96%
Rainfall 0.00 in
Snow Depth Not available.
UV 0.0 out of 12
Pollen .10 out of 12
Air Quality Not available.
Flu Activity Not available.
METAR KCRW 290454Z 03003KT 4SM -RA BR SCT001 OVC011 03/01 A3016 RMK AO2 RAE07B45 SLP217 VLY FG P0000 T00280011 401220028 $

More Conditions Fewer Conditions

10-Day Weather Forecast

Almanac

Astronomy

Dec. 29, 2014 Rise Set
Actual Time
Civil Twilight
Nautical Twilight
Astronomical Twilight
Moon
Length of Visible Light
Length of Day
Tomorrow will be .
, % of the Moon is Illuminated

Today's Extremes

State Highs State Lows

Community

WunderPhotos

Upload Photos

1,781,529 photos uploaded!

WunderBlogs® & News

Nearby

Air Quality

  Air Quality AQ Index Pollutant
Not available.

Snow Depth

Station Depth Elevation

Earthquake Activity

City Distance Mag. Time & Date
Minimum magnitude displayed is 2.5.

Coastal Water Temperatures

Place Temperature

Nearby Weather Stations